sensor_id;sensor_type;location;lat;lon;timestamp;temperature;humidity
83466;DHT22;73393;51.946;20.140;2023-11-21T00:01:56;2.60;98.40
83466;DHT22;73393;51.946;20.140;2023-11-21T00:04:22;2.50;99.10
83466;DHT22;73393;51.946;20.140;2023-11-21T00:06:48;2.60;99.30
83466;DHT22;73393;51.946;20.140;2023-11-21T00:09:15;2.70;99.60
83466;DHT22;73393;51.946;20.140;2023-11-21T00:11:41;2.80;99.30
83466;DHT22;73393;51.946;20.140;2023-11-21T00:14:07;2.80;98.60
83466;DHT22;73393;51.946;20.140;2023-11-21T00:16:33;2.70;97.60
83466;DHT22;73393;51.946;20.140;2023-11-21T00:18:59;2.70;97.90
83466;DHT22;73393;51.946;20.140;2023-11-21T00:21:25;2.60;98.10
83466;DHT22;73393;51.946;20.140;2023-11-21T00:23:50;2.50;98.80
83466;DHT22;73393;51.946;20.140;2023-11-21T00:26:16;2.30;99.10
83466;DHT22;73393;51.946;20.140;2023-11-21T00:28:42;2.20;99.10
83466;DHT22;73393;51.946;20.140;2023-11-21T00:31:07;2.20;99.20
83466;DHT22;73393;51.946;20.140;2023-11-21T00:33:33;2.10;100.00
83466;DHT22;73393;51.946;20.140;2023-11-21T00:35:59;2.10;100.00
83466;DHT22;73393;51.946;20.140;2023-11-21T00:38:26;2.10;100.00
83466;DHT22;73393;51.946;20.140;2023-11-21T00:40:52;2.20;99.90
83466;DHT22;73393;51.946;20.140;2023-11-21T00:43:22;2.20;99.10
83466;DHT22;73393;51.946;20.140;2023-11-21T00:45:48;2.20;99.80
83466;DHT22;73393;51.946;20.140;2023-11-21T00:48:14;2.30;99.20
83466;DHT22;73393;51.946;20.140;2023-11-21T00:50:40;2.30;98.60
83466;DHT22;73393;51.946;20.140;2023-11-21T00:53:06;2.20;98.60
83466;DHT22;73393;51.946;20.140;2023-11-21T00:55:33;2.20;98.70
83466;DHT22;73393;51.946;20.140;2023-11-21T00:57:58;2.30;99.00
83466;DHT22;73393;51.946;20.140;2023-11-21T01:00:25;2.40;98.70
83466;DHT22;73393;51.946;20.140;2023-11-21T01:02:50;2.50;97.50
83466;DHT22;73393;51.946;20.140;2023-11-21T01:05:16;2.30;97.20
83466;DHT22;73393;51.946;20.140;2023-11-21T01:07:42;2.30;97.80
83466;DHT22;73393;51.946;20.140;2023-11-21T01:10:07;2.30;98.00
83466;DHT22;73393;51.946;20.140;2023-11-21T01:12:38;2.30;97.70
83466;DHT22;73393;51.946;20.140;2023-11-21T01:15:05;2.40;97.50
83466;DHT22;73393;51.946;20.140;2023-11-21T01:17:34;2.40;97.50
83466;DHT22;73393;51.946;20.140;2023-11-21T01:20:00;2.40;97.00
83466;DHT22;73393;51.946;20.140;2023-11-21T01:22:26;2.40;97.30
83466;DHT22;73393;51.946;20.140;2023-11-21T01:24:54;2.40;96.90
83466;DHT22;73393;51.946;20.140;2023-11-21T01:27:21;2.50;97.30
83466;DHT22;73393;51.946;20.140;2023-11-21T01:29:46;2.50;96.90
83466;DHT22;73393;51.946;20.140;2023-11-21T01:32:12;2.50;96.80
83466;DHT22;73393;51.946;20.140;2023-11-21T01:34:38;2.50;96.90
83466;DHT22;73393;51.946;20.140;2023-11-21T01:37:03;2.50;96.40
83466;DHT22;73393;51.946;20.140;2023-11-21T01:39:31;2.20;96.80
83466;DHT22;73393;51.946;20.140;2023-11-21T01:41:57;2.20;97.80
83466;DHT22;73393;51.946;20.140;2023-11-21T01:44:24;2.30;97.80
83466;DHT22;73393;51.946;20.140;2023-11-21T01:46:50;2.20;97.50
83466;DHT22;73393;51.946;20.140;2023-11-21T01:49:17;2.10;98.00
83466;DHT22;73393;51.946;20.140;2023-11-21T01:51:47;2.20;98.10
83466;DHT22;73393;51.946;20.140;2023-11-21T01:54:15;2.20;98.10
83466;DHT22;73393;51.946;20.140;2023-11-21T01:56:42;2.30;97.90
83466;DHT22;73393;51.946;20.140;2023-11-21T01:59:10;2.50;97.50
83466;DHT22;73393;51.946;20.140;2023-11-21T02:01:37;2.50;97.10
83466;DHT22;73393;51.946;20.140;2023-11-21T02:04:03;2.60;96.70
83466;DHT22;73393;51.946;20.140;2023-11-21T02:06:28;2.60;96.70
83466;DHT22;73393;51.946;20.140;2023-11-21T02:08:56;2.60;96.50
83466;DHT22;73393;51.946;20.140;2023-11-21T02:11:22;2.60;96.50
83466;DHT22;73393;51.946;20.140;2023-11-21T02:13:49;2.60;96.40
83466;DHT22;73393;51.946;20.140;2023-11-21T02:16:15;2.70;96.10
83466;DHT22;73393;51.946;20.140;2023-11-21T02:18:41;2.40;96.30
83466;DHT22;73393;51.946;20.140;2023-11-21T02:21:07;2.50;97.00
83466;DHT22;73393;51.946;20.140;2023-11-21T02:23:33;2.50;96.60
83466;DHT22;73393;51.946;20.140;2023-11-21T02:25:59;2.40;96.10
83466;DHT22;73393;51.946;20.140;2023-11-21T02:28:29;2.40;97.20
83466;DHT22;73393;51.946;20.140;2023-11-21T02:30:55;2.50;97.10
83466;DHT22;73393;51.946;20.140;2023-11-21T02:33:22;2.50;96.60
83466;DHT22;73393;51.946;20.140;2023-11-21T02:35:48;2.30;96.10
83466;DHT22;73393;51.946;20.140;2023-11-21T02:38:13;2.40;96.70
83466;DHT22;73393;51.946;20.140;2023-11-21T02:40:39;2.40;97.10
83466;DHT22;73393;51.946;20.140;2023-11-21T02:43:05;2.50;96.60
83466;DHT22;73393;51.946;20.140;2023-11-21T02:45:31;2.40;96.70
83466;DHT22;73393;51.946;20.140;2023-11-21T02:47:58;2.50;96.20
83466;DHT22;73393;51.946;20.140;2023-11-21T02:50:23;2.50;96.30
83466;DHT22;73393;51.946;20.140;2023-11-21T02:52:49;2.30;96.40
83466;DHT22;73393;51.946;20.140;2023-11-21T02:55:15;2.10;96.80
83466;DHT22;73393;51.946;20.140;2023-11-21T02:57:41;2.00;96.80
83466;DHT22;73393;51.946;20.140;2023-11-21T03:00:07;1.90;97.60
83466;DHT22;73393;51.946;20.140;2023-11-21T03:02:33;1.80;97.60
83466;DHT22;73393;51.946;20.140;2023-11-21T03:05:02;1.80;97.90
83466;DHT22;73393;51.946;20.140;2023-11-21T03:07:27;1.70;98.80
83466;DHT22;73393;51.946;20.140;2023-11-21T03:09:53;1.60;98.70
83466;DHT22;73393;51.946;20.140;2023-11-21T03:12:19;1.40;99.30
83466;DHT22;73393;51.946;20.140;2023-11-21T03:14:45;1.50;99.40
83466;DHT22;73393;51.946;20.140;2023-11-21T03:17:10;1.40;99.50
83466;DHT22;73393;51.946;20.140;2023-11-21T03:19:37;1.50;99.80
83466;DHT22;73393;51.946;20.140;2023-11-21T03:22:03;1.50;99.40
83466;DHT22;73393;51.946;20.140;2023-11-21T03:24:29;1.50;99.00
83466;DHT22;73393;51.946;20.140;2023-11-21T03:26:55;1.50;98.90
83466;DHT22;73393;51.946;20.140;2023-11-21T03:29:21;1.70;99.10
83466;DHT22;73393;51.946;20.140;2023-11-21T03:31:47;1.80;98.30
83466;DHT22;73393;51.946;20.140;2023-11-21T03:34:22;1.80;97.40
83466;DHT22;73393;51.946;20.140;2023-11-21T03:36:48;1.70;96.80
83466;DHT22;73393;51.946;20.140;2023-11-21T03:39:13;1.50;97.00
83466;DHT22;73393;51.946;20.140;2023-11-21T03:41:39;1.50;97.30
83466;DHT22;73393;51.946;20.140;2023-11-21T03:44:05;1.50;97.60
83466;DHT22;73393;51.946;20.140;2023-11-21T03:46:30;1.60;97.70
83466;DHT22;73393;51.946;20.140;2023-11-21T03:48:56;1.50;96.90
83466;DHT22;73393;51.946;20.140;2023-11-21T03:51:21;1.50;97.50
83466;DHT22;73393;51.946;20.140;2023-11-21T03:53:47;1.50;97.90
83466;DHT22;73393;51.946;20.140;2023-11-21T03:56:13;1.60;97.60
83466;DHT22;73393;51.946;20.140;2023-11-21T03:58:39;1.50;96.70
83466;DHT22;73393;51.946;20.140;2023-11-21T04:01:05;1.40;97.20
83466;DHT22;73393;51.946;20.140;2023-11-21T04:03:31;1.30;97.40
83466;DHT22;73393;51.946;20.140;2023-11-21T04:05:56;1.40;98.20
83466;DHT22;73393;51.946;20.140;2023-11-21T04:08:22;1.40;97.70
83466;DHT22;73393;51.946;20.140;2023-11-21T04:10:48;1.30;97.40
83466;DHT22;73393;51.946;20.140;2023-11-21T04:13:14;1.40;98.20
83466;DHT22;73393;51.946;20.140;2023-11-21T04:15:39;1.40;97.80
83466;DHT22;73393;51.946;20.140;2023-11-21T04:18:05;1.30;97.50
83466;DHT22;73393;51.946;20.140;2023-11-21T04:20:31;1.40;97.90
83466;DHT22;73393;51.946;20.140;2023-11-21T04:22:57;1.30;97.60
83466;DHT22;73393;51.946;20.140;2023-11-21T04:25:23;1.40;98.00
83466;DHT22;73393;51.946;20.140;2023-11-21T04:27:49;1.40;97.90
83466;DHT22;73393;51.946;20.140;2023-11-21T04:30:14;1.20;97.70
83466;DHT22;73393;51.946;20.140;2023-11-21T04:32:40;1.30;98.60
83466;DHT22;73393;51.946;20.140;2023-11-21T04:35:07;1.20;98.90
83466;DHT22;73393;51.946;20.140;2023-11-21T04:37:34;1.20;99.00
83466;DHT22;73393;51.946;20.140;2023-11-21T04:39:59;1.20;99.10
83466;DHT22;73393;51.946;20.140;2023-11-21T04:42:25;1.10;98.50
83466;DHT22;73393;51.946;20.140;2023-11-21T04:44:50;1.00;99.30
83466;DHT22;73393;51.946;20.140;2023-11-21T04:47:18;1.00;98.90
83466;DHT22;73393;51.946;20.140;2023-11-21T04:49:46;1.10;98.70
83466;DHT22;73393;51.946;20.140;2023-11-21T04:52:12;1.00;98.90
83466;DHT22;73393;51.946;20.140;2023-11-21T04:54:38;0.90;99.00
83466;DHT22;73393;51.946;20.140;2023-11-21T04:57:05;0.90;99.50
83466;DHT22;73393;51.946;20.140;2023-11-21T04:59:33;0.90;100.00
83466;DHT22;73393;51.946;20.140;2023-11-21T05:01:58;0.90;99.50
83466;DHT22;73393;51.946;20.140;2023-11-21T05:04:25;0.80;99.40
83466;DHT22;73393;51.946;20.140;2023-11-21T05:06:51;0.80;99.90
83466;DHT22;73393;51.946;20.140;2023-11-21T05:09:16;0.70;100.00
83466;DHT22;73393;51.946;20.140;2023-11-21T05:11:43;0.70;100.00
83466;DHT22;73393;51.946;20.140;2023-11-21T05:14:08;0.70;99.80
83466;DHT22;73393;51.946;20.140;2023-11-21T05:16:34;0.80;100.00
83466;DHT22;73393;51.946;20.140;2023-11-21T05:19:00;0.90;99.60
83466;DHT22;73393;51.946;20.140;2023-11-21T05:21:29;0.90;99.00
83466;DHT22;73393;51.946;20.140;2023-11-21T05:23:57;0.80;98.10
83466;DHT22;73393;51.946;20.140;2023-11-21T05:26:23;0.60;97.70
83466;DHT22;73393;51.946;20.140;2023-11-21T05:28:49;0.60;98.50
83466;DHT22;73393;51.946;20.140;2023-11-21T05:31:15;0.60;99.40
83466;DHT22;73393;51.946;20.140;2023-11-21T05:33:41;0.60;98.70
83466;DHT22;73393;51.946;20.140;2023-11-21T05:36:07;0.60;99.10
83466;DHT22;73393;51.946;20.140;2023-11-21T05:38:33;0.50;98.70
83466;DHT22;73393;51.946;20.140;2023-11-21T05:40:59;0.50;98.70
83466;DHT22;73393;51.946;20.140;2023-11-21T05:43:24;0.40;98.40
83466;DHT22;73393;51.946;20.140;2023-11-21T05:45:50;0.40;99.60
83466;DHT22;73393;51.946;20.140;2023-11-21T05:48:15;0.40;99.70
83466;DHT22;73393;51.946;20.140;2023-11-21T05:50:41;0.40;99.30
83466;DHT22;73393;51.946;20.140;2023-11-21T05:53:07;0.40;99.50
83466;DHT22;73393;51.946;20.140;2023-11-21T05:55:32;0.40;99.20
83466;DHT22;73393;51.946;20.140;2023-11-21T05:57:58;0.40;98.90
83466;DHT22;73393;51.946;20.140;2023-11-21T06:00:24;0.20;99.00
83466;DHT22;73393;51.946;20.140;2023-11-21T06:02:52;0.30;98.50
83466;DHT22;73393;51.946;20.140;2023-11-21T06:05:19;0.20;98.50
83466;DHT22;73393;51.946;20.140;2023-11-21T06:07:45;0.20;98.50
83466;DHT22;73393;51.946;20.140;2023-11-21T06:10:11;0.20;98.40
83466;DHT22;73393;51.946;20.140;2023-11-21T06:12:40;0.20;98.60
83466;DHT22;73393;51.946;20.140;2023-11-21T06:15:08;0.30;98.80
83466;DHT22;73393;51.946;20.140;2023-11-21T06:17:38;0.20;97.80
83466;DHT22;73393;51.946;20.140;2023-11-21T06:20:06;0.20;97.90
83466;DHT22;73393;51.946;20.140;2023-11-21T06:22:38;0.40;98.50
83466;DHT22;73393;51.946;20.140;2023-11-21T06:25:04;0.30;97.60
83466;DHT22;73393;51.946;20.140;2023-11-21T06:27:43;0.20;98.10
83466;DHT22;73393;51.946;20.140;2023-11-21T06:30:11;0.20;97.50
83466;DHT22;73393;51.946;20.140;2023-11-21T06:32:38;0.10;98.30
83466;DHT22;73393;51.946;20.140;2023-11-21T06:35:06;0.10;98.60
83466;DHT22;73393;51.946;20.140;2023-11-21T06:37:33;0.20;99.00
83466;DHT22;73393;51.946;20.140;2023-11-21T06:39:59;0.30;98.70
83466;DHT22;73393;51.946;20.140;2023-11-21T06:42:26;0.30;97.40
83466;DHT22;73393;51.946;20.140;2023-11-21T06:44:52;0.30;96.90
83466;DHT22;73393;51.946;20.140;2023-11-21T06:47:18;0.20;97.10
83466;DHT22;73393;51.946;20.140;2023-11-21T06:49:46;0.20;97.70
83466;DHT22;73393;51.946;20.140;2023-11-21T06:52:13;0.30;97.60
83466;DHT22;73393;51.946;20.140;2023-11-21T06:54:39;0.40;97.50
83466;DHT22;73393;51.946;20.140;2023-11-21T06:57:06;0.30;96.50
83466;DHT22;73393;51.946;20.140;2023-11-21T06:59:31;0.20;96.60
83466;DHT22;73393;51.946;20.140;2023-11-21T07:01:57;0.30;97.10
83466;DHT22;73393;51.946;20.140;2023-11-21T07:04:23;0.30;97.50
83466;DHT22;73393;51.946;20.140;2023-11-21T07:06:53;0.30;96.90
83466;DHT22;73393;51.946;20.140;2023-11-21T07:09:21;0.20;96.10
83466;DHT22;73393;51.946;20.140;2023-11-21T07:11:54;0.00;97.30
83466;DHT22;73393;51.946;20.140;2023-11-21T07:14:19;0.10;97.70
83466;DHT22;73393;51.946;20.140;2023-11-21T07:16:46;0.20;98.20
83466;DHT22;73393;51.946;20.140;2023-11-21T07:19:12;0.20;97.60
83466;DHT22;73393;51.946;20.140;2023-11-21T07:21:38;0.20;97.60
83466;DHT22;73393;51.946;20.140;2023-11-21T07:24:05;0.20;97.60
83466;DHT22;73393;51.946;20.140;2023-11-21T07:26:32;0.30;97.00
83466;DHT22;73393;51.946;20.140;2023-11-21T07:28:59;0.20;96.90
83466;DHT22;73393;51.946;20.140;2023-11-21T07:31:25;0.10;97.30
83466;DHT22;73393;51.946;20.140;2023-11-21T07:33:51;0.30;97.70
83466;DHT22;73393;51.946;20.140;2023-11-21T07:36:17;0.10;97.10
83466;DHT22;73393;51.946;20.140;2023-11-21T07:38:49;0.00;97.90
83466;DHT22;73393;51.946;20.140;2023-11-21T07:41:14;0.10;98.60
83466;DHT22;73393;51.946;20.140;2023-11-21T07:43:41;0.10;98.20
83466;DHT22;73393;51.946;20.140;2023-11-21T07:46:07;0.30;98.80
83466;DHT22;73393;51.946;20.140;2023-11-21T07:48:33;0.30;98.20
83466;DHT22;73393;51.946;20.140;2023-11-21T07:51:02;0.40;98.10
83466;DHT22;73393;51.946;20.140;2023-11-21T07:53:32;0.40;98.00
83466;DHT22;73393;51.946;20.140;2023-11-21T07:55:58;0.30;96.80
83466;DHT22;73393;51.946;20.140;2023-11-21T07:58:24;0.30;98.10
83466;DHT22;73393;51.946;20.140;2023-11-21T08:00:50;0.40;98.40
83466;DHT22;73393;51.946;20.140;2023-11-21T08:03:16;0.50;97.30
83466;DHT22;73393;51.946;20.140;2023-11-21T08:05:42;0.20;97.30
83466;DHT22;73393;51.946;20.140;2023-11-21T08:08:08;0.30;98.30
83466;DHT22;73393;51.946;20.140;2023-11-21T08:10:34;0.40;97.20
83466;DHT22;73393;51.946;20.140;2023-11-21T08:13:01;0.50;97.20
83466;DHT22;73393;51.946;20.140;2023-11-21T08:15:27;0.50;96.40
83466;DHT22;73393;51.946;20.140;2023-11-21T08:17:52;0.30;95.90
83466;DHT22;73393;51.946;20.140;2023-11-21T08:20:18;0.50;96.60
83466;DHT22;73393;51.946;20.140;2023-11-21T08:22:44;0.50;96.30
83466;DHT22;73393;51.946;20.140;2023-11-21T08:25:09;0.50;95.50
83466;DHT22;73393;51.946;20.140;2023-11-21T08:27:35;0.60;95.60
83466;DHT22;73393;51.946;20.140;2023-11-21T08:30:02;0.50;94.40
83466;DHT22;73393;51.946;20.140;2023-11-21T08:32:28;0.40;94.30
83466;DHT22;73393;51.946;20.140;2023-11-21T08:34:56;0.40;95.40
83466;DHT22;73393;51.946;20.140;2023-11-21T08:37:21;0.40;95.30
83466;DHT22;73393;51.946;20.140;2023-11-21T08:39:47;0.40;96.40
83466;DHT22;73393;51.946;20.140;2023-11-21T08:42:16;0.50;95.90
83466;DHT22;73393;51.946;20.140;2023-11-21T08:44:41;0.30;95.90
83466;DHT22;73393;51.946;20.140;2023-11-21T08:47:07;0.40;96.50
83466;DHT22;73393;51.946;20.140;2023-11-21T08:49:33;0.20;95.70
83466;DHT22;73393;51.946;20.140;2023-11-21T08:51:58;0.10;96.80
83466;DHT22;73393;51.946;20.140;2023-11-21T08:54:27;0.10;97.60
83466;DHT22;73393;51.946;20.140;2023-11-21T08:56:53;0.20;97.80
83466;DHT22;73393;51.946;20.140;2023-11-21T08:59:20;0.10;97.20
83466;DHT22;73393;51.946;20.140;2023-11-21T09:01:46;0.10;97.40
83466;DHT22;73393;51.946;20.140;2023-11-21T09:04:12;0.10;97.10
83466;DHT22;73393;51.946;20.140;2023-11-21T09:06:38;0.00;97.40
83466;DHT22;73393;51.946;20.140;2023-11-21T09:09:04;0.00;97.20
83466;DHT22;73393;51.946;20.140;2023-11-21T09:11:31;0.00;97.50
83466;DHT22;73393;51.946;20.140;2023-11-21T09:14:02;0.00;97.10
83466;DHT22;73393;51.946;20.140;2023-11-21T09:16:28;0.10;97.50
83466;DHT22;73393;51.946;20.140;2023-11-21T09:18:54;0.10;97.20
83466;DHT22;73393;51.946;20.140;2023-11-21T09:21:20;0.00;96.50
83466;DHT22;73393;51.946;20.140;2023-11-21T09:23:46;0.00;97.00
83466;DHT22;73393;51.946;20.140;2023-11-21T09:26:12;0.00;96.90
83466;DHT22;73393;51.946;20.140;2023-11-21T09:28:37;0.00;97.30
83466;DHT22;73393;51.946;20.140;2023-11-21T09:31:04;0.00;97.20
83466;DHT22;73393;51.946;20.140;2023-11-21T09:33:30;0.00;96.80
83466;DHT22;73393;51.946;20.140;2023-11-21T09:35:56;0.00;97.30
83466;DHT22;73393;51.946;20.140;2023-11-21T09:38:23;0.00;97.90
83466;DHT22;73393;51.946;20.140;2023-11-21T09:40:49;0.00;97.20
83466;DHT22;73393;51.946;20.140;2023-11-21T09:43:18;0.10;96.80
83466;DHT22;73393;51.946;20.140;2023-11-21T09:45:50;0.20;96.60
83466;DHT22;73393;51.946;20.140;2023-11-21T09:48:19;0.10;95.50
83466;DHT22;73393;51.946;20.140;2023-11-21T09:50:47;0.20;95.20
83466;DHT22;73393;51.946;20.140;2023-11-21T09:53:20;0.20;95.60
83466;DHT22;73393;51.946;20.140;2023-11-21T09:55:53;0.10;94.70
83466;DHT22;73393;51.946;20.140;2023-11-21T09:58:20;0.10;95.20
83466;DHT22;73393;51.946;20.140;2023-11-21T10:00:50;0.10;95.70
83466;DHT22;73393;51.946;20.140;2023-11-21T10:03:18;0.00;96.10
83466;DHT22;73393;51.946;20.140;2023-11-21T10:05:44;0.00;96.30
83466;DHT22;73393;51.946;20.140;2023-11-21T10:08:12;0.10;96.90
83466;DHT22;73393;51.946;20.140;2023-11-21T10:10:42;0.10;95.40
83466;DHT22;73393;51.946;20.140;2023-11-21T10:13:11;0.00;95.20
83466;DHT22;73393;51.946;20.140;2023-11-21T10:15:38;0.00;95.20
83466;DHT22;73393;51.946;20.140;2023-11-21T10:18:05;0.00;95.80
83466;DHT22;73393;51.946;20.140;2023-11-21T10:20:32;0.10;95.40
83466;DHT22;73393;51.946;20.140;2023-11-21T10:23:03;0.20;95.10
83466;DHT22;73393;51.946;20.140;2023-11-21T10:25:30;0.20;94.70
83466;DHT22;73393;51.946;20.140;2023-11-21T10:28:01;0.20;94.20
83466;DHT22;73393;51.946;20.140;2023-11-21T10:30:32;0.10;95.20
83466;DHT22;73393;51.946;20.140;2023-11-21T10:32:59;0.10;94.30
83466;DHT22;73393;51.946;20.140;2023-11-21T10:35:38;0.10;94.80
83466;DHT22;73393;51.946;20.140;2023-11-21T10:38:05;0.20;95.10
83466;DHT22;73393;51.946;20.140;2023-11-21T10:40:31;0.20;94.70
83466;DHT22;73393;51.946;20.140;2023-11-21T10:43:06;0.30;93.80
83466;DHT22;73393;51.946;20.140;2023-11-21T10:45:34;0.30;94.20
83466;DHT22;73393;51.946;20.140;2023-11-21T10:48:00;0.30;94.00
83466;DHT22;73393;51.946;20.140;2023-11-21T10:50:26;0.10;94.00
83466;DHT22;73393;51.946;20.140;2023-11-21T10:52:52;-0.10;94.10
83466;DHT22;73393;51.946;20.140;2023-11-21T10:55:20;-0.10;95.80
83466;DHT22;73393;51.946;20.140;2023-11-21T10:57:52;-0.10;96.30
83466;DHT22;73393;51.946;20.140;2023-11-21T11:00:18;-0.10;95.80
83466;DHT22;73393;51.946;20.140;2023-11-21T11:02:51;-0.20;96.00
83466;DHT22;73393;51.946;20.140;2023-11-21T11:05:20;-0.20;96.70
83466;DHT22;73393;51.946;20.140;2023-11-21T11:07:48;-0.10;96.10
83466;DHT22;73393;51.946;20.140;2023-11-21T11:10:17;-0.10;96.40
83466;DHT22;73393;51.946;20.140;2023-11-21T11:12:47;0.00;96.50
83466;DHT22;73393;51.946;20.140;2023-11-21T11:15:13;0.00;96.70
83466;DHT22;73393;51.946;20.140;2023-11-21T11:17:39;0.10;95.50
83466;DHT22;73393;51.946;20.140;2023-11-21T11:20:06;0.00;94.10
83466;DHT22;73393;51.946;20.140;2023-11-21T11:22:42;-0.10;94.40
83466;DHT22;73393;51.946;20.140;2023-11-21T11:28:08;-0.20;95.50
83466;DHT22;73393;51.946;20.140;2023-11-21T11:33:55;0.00;95.90
83466;DHT22;73393;51.946;20.140;2023-11-21T11:36:34;0.00;96.40
83466;DHT22;73393;51.946;20.140;2023-11-21T11:39:01;-0.10;93.70
83466;DHT22;73393;51.946;20.140;2023-11-21T11:41:30;-0.20;94.60
83466;DHT22;73393;51.946;20.140;2023-11-21T11:43:58;-0.10;94.80
83466;DHT22;73393;51.946;20.140;2023-11-21T11:46:42;-0.30;94.60
83466;DHT22;73393;51.946;20.140;2023-11-21T11:49:08;-0.30;95.80
83466;DHT22;73393;51.946;20.140;2023-11-21T11:51:34;-0.20;95.90
83466;DHT22;73393;51.946;20.140;2023-11-21T11:54:01;-0.40;95.90
83466;DHT22;73393;51.946;20.140;2023-11-21T11:56:31;-0.30;96.00
83466;DHT22;73393;51.946;20.140;2023-11-21T11:59:01;-0.20;97.10
83466;DHT22;73393;51.946;20.140;2023-11-21T12:01:34;-0.10;96.90
83466;DHT22;73393;51.946;20.140;2023-11-21T12:06:41;0.00;95.60
83466;DHT22;73393;51.946;20.140;2023-11-21T12:09:07;0.00;94.00
83466;DHT22;73393;51.946;20.140;2023-11-21T12:11:41;0.00;94.50
83466;DHT22;73393;51.946;20.140;2023-11-21T12:14:09;0.20;94.10
83466;DHT22;73393;51.946;20.140;2023-11-21T12:16:35;0.30;93.60
83466;DHT22;73393;51.946;20.140;2023-11-21T12:19:00;0.20;92.90
83466;DHT22;73393;51.946;20.140;2023-11-21T12:21:27;0.20;93.60
83466;DHT22;73393;51.946;20.140;2023-11-21T12:23:53;0.20;92.70
83466;DHT22;73393;51.946;20.140;2023-11-21T12:26:18;0.00;93.00
83466;DHT22;73393;51.946;20.140;2023-11-21T12:28:52;0.00;93.30
83466;DHT22;73393;51.946;20.140;2023-11-21T12:31:19;0.00;93.10
83466;DHT22;73393;51.946;20.140;2023-11-21T12:33:45;0.00;93.90
83466;DHT22;73393;51.946;20.140;2023-11-21T12:36:11;0.00;93.40
83466;DHT22;73393;51.946;20.140;2023-11-21T12:38:37;0.00;93.60
83466;DHT22;73393;51.946;20.140;2023-11-21T12:41:03;0.00;93.70
83466;DHT22;73393;51.946;20.140;2023-11-21T12:43:29;-0.10;94.40
83466;DHT22;73393;51.946;20.140;2023-11-21T12:46:05;-0.10;94.60
83466;DHT22;73393;51.946;20.140;2023-11-21T12:48:32;-0.20;95.10
83466;DHT22;73393;51.946;20.140;2023-11-21T12:50:57;-0.10;95.60
83466;DHT22;73393;51.946;20.140;2023-11-21T12:53:26;0.00;94.70
83466;DHT22;73393;51.946;20.140;2023-11-21T12:55:51;0.00;95.00
83466;DHT22;73393;51.946;20.140;2023-11-21T12:58:17;0.00;94.40
83466;DHT22;73393;51.946;20.140;2023-11-21T13:00:46;-0.20;94.00
83466;DHT22;73393;51.946;20.140;2023-11-21T13:03:13;-0.20;93.80
83466;DHT22;73393;51.946;20.140;2023-11-21T13:05:46;-0.30;94.60
83466;DHT22;73393;51.946;20.140;2023-11-21T13:08:15;-0.30;94.20
83466;DHT22;73393;51.946;20.140;2023-11-21T13:10:45;-0.40;94.50
83466;DHT22;73393;51.946;20.140;2023-11-21T13:13:13;-0.60;94.60
83466;DHT22;73393;51.946;20.140;2023-11-21T13:16:00;-0.50;95.30
83466;DHT22;73393;51.946;20.140;2023-11-21T13:18:27;-0.50;94.30
83466;DHT22;73393;51.946;20.140;2023-11-21T13:20:54;-0.50;94.80
83466;DHT22;73393;51.946;20.140;2023-11-21T13:23:20;-0.40;94.50
83466;DHT22;73393;51.946;20.140;2023-11-21T13:25:46;-0.40;94.80
83466;DHT22;73393;51.946;20.140;2023-11-21T13:28:13;-0.40;94.70
83466;DHT22;73393;51.946;20.140;2023-11-21T13:30:41;-0.40;94.40
83466;DHT22;73393;51.946;20.140;2023-11-21T13:33:08;-0.40;94.10
83466;DHT22;73393;51.946;20.140;2023-11-21T13:35:35;-0.50;93.60
83466;DHT22;73393;51.946;20.140;2023-11-21T13:38:09;-0.50;94.20
83466;DHT22;73393;51.946;20.140;2023-11-21T13:40:36;-0.60;93.80
83466;DHT22;73393;51.946;20.140;2023-11-21T13:43:12;-0.50;94.00
83466;DHT22;73393;51.946;20.140;2023-11-21T13:45:40;-0.50;93.90
83466;DHT22;73393;51.946;20.140;2023-11-21T13:48:06;-0.50;94.50
83466;DHT22;73393;51.946;20.140;2023-11-21T13:50:53;-0.50;94.00
83466;DHT22;73393;51.946;20.140;2023-11-21T13:53:24;-0.50;94.00
83466;DHT22;73393;51.946;20.140;2023-11-21T13:55:51;-0.60;93.80
83466;DHT22;73393;51.946;20.140;2023-11-21T13:58:22;-0.60;94.40
83466;DHT22;73393;51.946;20.140;2023-11-21T14:01:00;-0.60;94.30
83466;DHT22;73393;51.946;20.140;2023-11-21T14:03:27;-0.50;93.70
83466;DHT22;73393;51.946;20.140;2023-11-21T14:06:12;-0.40;94.20
83466;DHT22;73393;51.946;20.140;2023-11-21T14:08:46;-0.40;93.10
83466;DHT22;73393;51.946;20.140;2023-11-21T14:11:13;-0.40;94.20
83466;DHT22;73393;51.946;20.140;2023-11-21T14:13:43;-0.40;94.00
83466;DHT22;73393;51.946;20.140;2023-11-21T14:16:12;-0.40;93.90
83466;DHT22;73393;51.946;20.140;2023-11-21T14:18:39;-0.40;93.90
83466;DHT22;73393;51.946;20.140;2023-11-21T14:21:18;-0.40;94.10
83466;DHT22;73393;51.946;20.140;2023-11-21T14:23:43;-0.30;93.90
83466;DHT22;73393;51.946;20.140;2023-11-21T14:26:11;-0.50;93.40
83466;DHT22;73393;51.946;20.140;2023-11-21T14:28:39;-0.60;92.70
83466;DHT22;73393;51.946;20.140;2023-11-21T14:31:05;-0.60;93.30
83466;DHT22;73393;51.946;20.140;2023-11-21T14:33:30;-0.70;93.80
83466;DHT22;73393;51.946;20.140;2023-11-21T14:35:56;-0.70;94.00
83466;DHT22;73393;51.946;20.140;2023-11-21T14:38:23;-0.70;94.30
83466;DHT22;73393;51.946;20.140;2023-11-21T14:40:48;-0.80;94.00
83466;DHT22;73393;51.946;20.140;2023-11-21T14:43:14;-0.80;94.00
83466;DHT22;73393;51.946;20.140;2023-11-21T14:45:41;-0.80;94.40
83466;DHT22;73393;51.946;20.140;2023-11-21T14:48:06;-0.70;94.20
83466;DHT22;73393;51.946;20.140;2023-11-21T14:50:41;-0.80;93.60
83466;DHT22;73393;51.946;20.140;2023-11-21T14:53:07;-0.80;94.00
83466;DHT22;73393;51.946;20.140;2023-11-21T14:55:34;-0.80;93.10
83466;DHT22;73393;51.946;20.140;2023-11-21T14:58:20;-0.80;93.30
83466;DHT22;73393;51.946;20.140;2023-11-21T15:01:00;-0.80;93.90
83466;DHT22;73393;51.946;20.140;2023-11-21T15:03:28;-0.70;93.60
83466;DHT22;73393;51.946;20.140;2023-11-21T15:06:03;-0.80;93.70
83466;DHT22;73393;51.946;20.140;2023-11-21T15:08:48;-0.80;93.50
83466;DHT22;73393;51.946;20.140;2023-11-21T15:11:19;-0.80;93.90
83466;DHT22;73393;51.946;20.140;2023-11-21T15:13:44;-0.70;94.20
83466;DHT22;73393;51.946;20.140;2023-11-21T15:16:14;-0.80;93.10
83466;DHT22;73393;51.946;20.140;2023-11-21T15:18:39;-0.90;93.50
83466;DHT22;73393;51.946;20.140;2023-11-21T15:21:05;-0.90;94.00
83466;DHT22;73393;51.946;20.140;2023-11-21T15:23:31;-0.80;94.20
83466;DHT22;73393;51.946;20.140;2023-11-21T15:26:00;-0.90;93.70
83466;DHT22;73393;51.946;20.140;2023-11-21T15:28:28;-0.90;93.60
83466;DHT22;73393;51.946;20.140;2023-11-21T15:30:54;-0.90;93.50
83466;DHT22;73393;51.946;20.140;2023-11-21T15:33:20;-0.90;93.00
83466;DHT22;73393;51.946;20.140;2023-11-21T15:35:45;-1.00;93.20
83466;DHT22;73393;51.946;20.140;2023-11-21T15:38:11;-1.00;94.20